LDG45 EGHQ-EGKK
Flight info
| Callsign | LDG45 |
|---|---|
| Flight time | 1h 21m |
| Altitude | 9000 |
| Route | DAWLY DCT GIBSO DCT SAM Y8 GWC |
| Aircraft | DA42/L-SBDGRY/S |
Departure
| Time | 2026-05-05 18:53 |
|---|---|
| Airport | Cornwall Airport Newquay (EGHQ) |
Arrival
| Time | 2026-05-05 20:14 |
|---|---|
| Airport | London Gatwick Airport (EGKK) |
| Time | Latitude | Longitude | Altitude | Speed | Heading |
|---|---|---|---|---|---|
| 2026-05-05 18:37 | 50.44435 | -4.99749 | 338 ft | 0 kts | 158° |
| 2026-05-05 18:43 | 50.44434 | -4.99749 | 340 ft | 0 kts | 158° |
| 2026-05-05 18:43 | 50.44419 | -4.99735 | 348 ft | 4 kts | 153° |
| 2026-05-05 18:43 | 50.44401 | -4.99759 | 346 ft | 7 kts | 248° |
| 2026-05-05 18:43 | 50.44382 | -4.99802 | 344 ft | 4 kts | 156° |
| 2026-05-05 18:44 | 50.44342 | -4.99696 | 349 ft | 18 kts | 119° |
| 2026-05-05 18:44 | 50.44264 | -4.99488 | 356 ft | 24 kts | 121° |
| 2026-05-05 18:44 | 50.44183 | -4.99276 | 353 ft | 21 kts | 121° |
| 2026-05-05 18:44 | 50.44115 | -4.99091 | 356 ft | 18 kts | 121° |
| 2026-05-05 18:45 | 50.44052 | -4.98919 | 363 ft | 18 kts | 116° |
| 2026-05-05 18:45 | 50.43977 | -4.98719 | 369 ft | 23 kts | 123° |
| 2026-05-05 18:45 | 50.43900 | -4.98526 | 373 ft | 20 kts | 119° |
| 2026-05-05 18:45 | 50.43835 | -4.98348 | 377 ft | 20 kts | 122° |
| 2026-05-05 18:46 | 50.43770 | -4.98162 | 381 ft | 17 kts | 101° |
| 2026-05-05 18:46 | 50.43775 | -4.98108 | 383 ft | 0 kts | 129° |
| 2026-05-05 18:47 | 50.43775 | -4.98107 | 383 ft | 0 kts | 129° |
| 2026-05-05 18:48 | 50.43775 | -4.98108 | 383 ft | 0 kts | 129° |
| 2026-05-05 18:49 | 50.43775 | -4.98107 | 383 ft | 1 kts | 129° |
| 2026-05-05 18:49 | 50.43718 | -4.98030 | 385 ft | 17 kts | 120° |
| 2026-05-05 18:50 | 50.43643 | -4.97896 | 388 ft | 16 kts | 144° |
| 2026-05-05 18:50 | 50.43562 | -4.97845 | 390 ft | 0 kts | 177° |
| 2026-05-05 18:51 | 50.43555 | -4.97844 | 390 ft | 6 kts | 178° |
| 2026-05-05 18:51 | 50.43483 | -4.97862 | 390 ft | 12 kts | 201° |
| 2026-05-05 18:51 | 50.43467 | -4.97912 | 390 ft | 0 kts | 299° |
| 2026-05-05 18:52 | 50.43595 | -4.98256 | 376 ft | 69 kts | 301° |
| 2026-05-05 18:52 | 50.43877 | -4.99063 | 542 ft | 89 kts | 302° |
| 2026-05-05 18:52 | 50.44159 | -4.99928 | 944 ft | 89 kts | 303° |
| 2026-05-05 18:53 | 50.44481 | -5.00688 | 1388 ft | 82 kts | 330° |
| 2026-05-05 18:53 | 50.45022 | -5.00776 | 1753 ft | 83 kts | 23° |
| 2026-05-05 18:53 | 50.45341 | -5.00024 | 2181 ft | 91 kts | 71° |
| 2026-05-05 18:53 | 50.45347 | -4.99016 | 2637 ft | 90 kts | 78° |
| 2026-05-05 18:54 | 50.45351 | -4.98008 | 3022 ft | 94 kts | 79° |
| 2026-05-05 18:54 | 50.45405 | -4.97008 | 3410 ft | 94 kts | 73° |
| 2026-05-05 18:54 | 50.45526 | -4.95994 | 3705 ft | 92 kts | 56° |
| 2026-05-05 18:54 | 50.45756 | -4.95057 | 3988 ft | 97 kts | 73° |
| 2026-05-05 18:55 | 50.45833 | -4.94003 | 4322 ft | 98 kts | 74° |
| 2026-05-05 18:55 | 50.45913 | -4.92944 | 4639 ft | 101 kts | 72° |
| 2026-05-05 18:55 | 50.46012 | -4.91732 | 4720 ft | 123 kts | 75° |
| 2026-05-05 18:55 | 50.46121 | -4.90356 | 4934 ft | 127 kts | 75° |
| 2026-05-05 18:56 | 50.46232 | -4.88997 | 5196 ft | 128 kts | 76° |
| 2026-05-05 18:56 | 50.46348 | -4.87608 | 5445 ft | 128 kts | 76° |
| 2026-05-05 18:56 | 50.46465 | -4.86220 | 5718 ft | 129 kts | 76° |
| 2026-05-05 18:56 | 50.46581 | -4.84859 | 5886 ft | 131 kts | 75° |
| 2026-05-05 18:57 | 50.46660 | -4.83916 | 6032 ft | 128 kts | 77° |
| 2026-05-05 18:57 | 50.46763 | -4.82656 | 6504 ft | 105 kts | 74° |
| 2026-05-05 18:57 | 50.46860 | -4.81534 | 6767 ft | 105 kts | 76° |
| 2026-05-05 18:57 | 50.46958 | -4.80395 | 6998 ft | 105 kts | 75° |
| 2026-05-05 18:58 | 50.47054 | -4.79249 | 7239 ft | 106 kts | 74° |
| 2026-05-05 18:58 | 50.47151 | -4.78093 | 7497 ft | 107 kts | 74° |
| 2026-05-05 18:58 | 50.47249 | -4.76928 | 7762 ft | 107 kts | 77° |
| 2026-05-05 18:58 | 50.47345 | -4.75777 | 8016 ft | 108 kts | 75° |
| 2026-05-05 18:59 | 50.47442 | -4.74610 | 8282 ft | 108 kts | 78° |
| 2026-05-05 18:59 | 50.47541 | -4.73433 | 8541 ft | 110 kts | 75° |
| 2026-05-05 18:59 | 50.47640 | -4.72242 | 8797 ft | 110 kts | 76° |
| 2026-05-05 18:59 | 50.47741 | -4.71030 | 9002 ft | 118 kts | 76° |
| 2026-05-05 19:00 | 50.47859 | -4.69637 | 8999 ft | 138 kts | 78° |
| 2026-05-05 19:00 | 50.47987 | -4.68070 | 8989 ft | 150 kts | 78° |
| 2026-05-05 19:00 | 50.48124 | -4.66390 | 8988 ft | 159 kts | 78° |
| 2026-05-05 19:00 | 50.48271 | -4.64623 | 8992 ft | 168 kts | 78° |
| 2026-05-05 19:01 | 50.48424 | -4.62783 | 8982 ft | 173 kts | 77° |
| 2026-05-05 19:01 | 50.48580 | -4.60895 | 8982 ft | 175 kts | 78° |
| 2026-05-05 19:01 | 50.48736 | -4.58985 | 8983 ft | 177 kts | 79° |
| 2026-05-05 19:01 | 50.48893 | -4.57063 | 8976 ft | 177 kts | 78° |
| 2026-05-05 19:02 | 50.49047 | -4.55171 | 8979 ft | 177 kts | 78° |
| 2026-05-05 19:02 | 50.49208 | -4.53224 | 8978 ft | 177 kts | 78° |
| 2026-05-05 19:02 | 50.49364 | -4.51325 | 8978 ft | 177 kts | 79° |
| 2026-05-05 19:02 | 50.49520 | -4.49400 | 8979 ft | 178 kts | 79° |
| 2026-05-05 19:03 | 50.49677 | -4.47469 | 8984 ft | 178 kts | 78° |
| 2026-05-05 19:03 | 50.49833 | -4.45536 | 8991 ft | 178 kts | 78° |
| 2026-05-05 19:03 | 50.49990 | -4.43599 | 8986 ft | 179 kts | 78° |
| 2026-05-05 19:03 | 50.50147 | -4.41653 | 8984 ft | 179 kts | 79° |
| 2026-05-05 19:04 | 50.50302 | -4.39715 | 8985 ft | 179 kts | 78° |
| 2026-05-05 19:04 | 50.50458 | -4.37773 | 8986 ft | 179 kts | 77° |
| 2026-05-05 19:04 | 50.50615 | -4.35824 | 8984 ft | 180 kts | 79° |
| 2026-05-05 19:04 | 50.50772 | -4.33874 | 8985 ft | 180 kts | 79° |
| 2026-05-05 19:05 | 50.50925 | -4.31947 | 8987 ft | 180 kts | 78° |
| 2026-05-05 19:05 | 50.51081 | -4.29993 | 8985 ft | 180 kts | 78° |
| 2026-05-05 19:05 | 50.51235 | -4.28048 | 8984 ft | 180 kts | 78° |
| 2026-05-05 19:05 | 50.51378 | -4.26256 | 8981 ft | 179 kts | 78° |
| 2026-05-05 19:06 | 50.51532 | -4.24312 | 8982 ft | 178 kts | 79° |
| 2026-05-05 19:06 | 50.51682 | -4.22386 | 8984 ft | 178 kts | 79° |
| 2026-05-05 19:06 | 50.51836 | -4.20447 | 8983 ft | 178 kts | 78° |
| 2026-05-05 19:06 | 50.51989 | -4.18515 | 8984 ft | 179 kts | 79° |
| 2026-05-05 19:07 | 50.52138 | -4.16604 | 8990 ft | 178 kts | 78° |
| 2026-05-05 19:07 | 50.52289 | -4.14675 | 8990 ft | 178 kts | 78° |
| 2026-05-05 19:07 | 50.52439 | -4.12747 | 8990 ft | 177 kts | 78° |
| 2026-05-05 19:07 | 50.52590 | -4.10820 | 8992 ft | 178 kts | 78° |
| 2026-05-05 19:08 | 50.52741 | -4.08892 | 8992 ft | 178 kts | 78° |
| 2026-05-05 19:08 | 50.52891 | -4.06952 | 8990 ft | 178 kts | 79° |
| 2026-05-05 19:08 | 50.53040 | -4.05019 | 8990 ft | 178 kts | 79° |
| 2026-05-05 19:08 | 50.53187 | -4.03112 | 8991 ft | 178 kts | 78° |
| 2026-05-05 19:09 | 50.53329 | -4.01283 | 8988 ft | 179 kts | 79° |
| 2026-05-05 19:09 | 50.53480 | -3.99338 | 8989 ft | 179 kts | 80° |
| 2026-05-05 19:09 | 50.53628 | -3.97395 | 8989 ft | 179 kts | 78° |
| 2026-05-05 19:09 | 50.53777 | -3.95451 | 8990 ft | 179 kts | 78° |
| 2026-05-05 19:10 | 50.53925 | -3.93505 | 8989 ft | 179 kts | 78° |
| 2026-05-05 19:10 | 50.54074 | -3.91558 | 8988 ft | 179 kts | 79° |
| 2026-05-05 19:10 | 50.54223 | -3.89612 | 8982 ft | 179 kts | 80° |
| 2026-05-05 19:10 | 50.54369 | -3.87668 | 8983 ft | 179 kts | 79° |
| 2026-05-05 19:11 | 50.54517 | -3.85724 | 8978 ft | 179 kts | 78° |
| 2026-05-05 19:11 | 50.54665 | -3.83785 | 8982 ft | 179 kts | 79° |
| 2026-05-05 19:11 | 50.54811 | -3.81846 | 8981 ft | 179 kts | 79° |
| 2026-05-05 19:11 | 50.54956 | -3.79900 | 8980 ft | 179 kts | 79° |
| 2026-05-05 19:12 | 50.55054 | -3.78592 | 8984 ft | 179 kts | 79° |
| 2026-05-05 19:12 | 50.55199 | -3.76652 | 8983 ft | 178 kts | 78° |
| 2026-05-05 19:12 | 50.55344 | -3.74722 | 8981 ft | 177 kts | 78° |
| 2026-05-05 19:12 | 50.55489 | -3.72797 | 8983 ft | 177 kts | 80° |
| 2026-05-05 19:13 | 50.55629 | -3.70894 | 8981 ft | 177 kts | 79° |
| 2026-05-05 19:13 | 50.55772 | -3.68969 | 8981 ft | 177 kts | 79° |
| 2026-05-05 19:13 | 50.55916 | -3.67043 | 8981 ft | 177 kts | 79° |
| 2026-05-05 19:13 | 50.56059 | -3.65114 | 8981 ft | 177 kts | 79° |
| 2026-05-05 19:14 | 50.56201 | -3.63189 | 8978 ft | 177 kts | 79° |
| 2026-05-05 19:14 | 50.56342 | -3.61268 | 8978 ft | 177 kts | 79° |
| 2026-05-05 19:14 | 50.56483 | -3.59343 | 8978 ft | 177 kts | 79° |
| 2026-05-05 19:14 | 50.56602 | -3.57718 | 8977 ft | 177 kts | 79° |
| 2026-05-05 19:15 | 50.56743 | -3.55795 | 8982 ft | 177 kts | 80° |
| 2026-05-05 19:15 | 50.56883 | -3.53866 | 8982 ft | 177 kts | 79° |
| 2026-05-05 19:15 | 50.57024 | -3.51936 | 8977 ft | 178 kts | 79° |
| 2026-05-05 19:15 | 50.57166 | -3.49992 | 8934 ft | 181 kts | 79° |
| 2026-05-05 19:16 | 50.57305 | -3.48054 | 8931 ft | 180 kts | 80° |
| 2026-05-05 19:16 | 50.57483 | -3.46112 | 8925 ft | 178 kts | 71° |
| 2026-05-05 19:16 | 50.57829 | -3.44248 | 8926 ft | 176 kts | 70° |
| 2026-05-05 19:16 | 50.58183 | -3.42405 | 8928 ft | 176 kts | 69° |
| 2026-05-05 19:17 | 50.58534 | -3.40568 | 8926 ft | 176 kts | 70° |
| 2026-05-05 19:17 | 50.58885 | -3.38722 | 8926 ft | 175 kts | 70° |
| 2026-05-05 19:17 | 50.59209 | -3.37006 | 8927 ft | 175 kts | 70° |
| 2026-05-05 19:17 | 50.59549 | -3.35213 | 8926 ft | 175 kts | 69° |
| 2026-05-05 19:18 | 50.59893 | -3.33397 | 8923 ft | 175 kts | 70° |
| 2026-05-05 19:18 | 50.60245 | -3.31535 | 8924 ft | 175 kts | 70° |
| 2026-05-05 19:18 | 50.60587 | -3.29721 | 8925 ft | 175 kts | 70° |
| 2026-05-05 19:18 | 50.60939 | -3.27856 | 8924 ft | 176 kts | 70° |
| 2026-05-05 19:19 | 50.61282 | -3.26037 | 8923 ft | 176 kts | 70° |
| 2026-05-05 19:19 | 50.61629 | -3.24191 | 8928 ft | 176 kts | 70° |
| 2026-05-05 19:19 | 50.61975 | -3.22348 | 8929 ft | 175 kts | 70° |
| 2026-05-05 19:19 | 50.62321 | -3.20507 | 8929 ft | 175 kts | 70° |
| 2026-05-05 19:20 | 50.62668 | -3.18664 | 8929 ft | 175 kts | 70° |
| 2026-05-05 19:20 | 50.63004 | -3.16867 | 8930 ft | 175 kts | 70° |
| 2026-05-05 19:20 | 50.63350 | -3.15026 | 8928 ft | 175 kts | 70° |
| 2026-05-05 19:20 | 50.63695 | -3.13179 | 8928 ft | 176 kts | 70° |
| 2026-05-05 19:21 | 50.64040 | -3.11333 | 8925 ft | 175 kts | 70° |
| 2026-05-05 19:21 | 50.64385 | -3.09487 | 8925 ft | 176 kts | 70° |
| 2026-05-05 19:21 | 50.64710 | -3.07747 | 8923 ft | 176 kts | 70° |
| 2026-05-05 19:21 | 50.65054 | -3.05902 | 8926 ft | 176 kts | 70° |
| 2026-05-05 19:22 | 50.65397 | -3.04056 | 8928 ft | 175 kts | 70° |
| 2026-05-05 19:22 | 50.65740 | -3.02212 | 8930 ft | 175 kts | 70° |
| 2026-05-05 19:22 | 50.66084 | -3.00365 | 8928 ft | 175 kts | 70° |
| 2026-05-05 19:22 | 50.66427 | -2.98517 | 8929 ft | 175 kts | 70° |
| 2026-05-05 19:23 | 50.66768 | -2.96679 | 8929 ft | 175 kts | 70° |
| 2026-05-05 19:23 | 50.67109 | -2.94841 | 8929 ft | 175 kts | 70° |
| 2026-05-05 19:23 | 50.67450 | -2.93000 | 8928 ft | 175 kts | 70° |
| 2026-05-05 19:23 | 50.67789 | -2.91164 | 8930 ft | 175 kts | 70° |
| 2026-05-05 19:24 | 50.68129 | -2.89322 | 8927 ft | 175 kts | 70° |
| 2026-05-05 19:24 | 50.68469 | -2.87484 | 8927 ft | 175 kts | 70° |
| 2026-05-05 19:24 | 50.68795 | -2.85717 | 8928 ft | 175 kts | 70° |
| 2026-05-05 19:24 | 50.69105 | -2.84036 | 8927 ft | 175 kts | 70° |
| 2026-05-05 19:25 | 50.69444 | -2.82190 | 8930 ft | 175 kts | 70° |
| 2026-05-05 19:25 | 50.69783 | -2.80344 | 8928 ft | 175 kts | 70° |
| 2026-05-05 19:25 | 50.70122 | -2.78497 | 8925 ft | 176 kts | 70° |
| 2026-05-05 19:25 | 50.70462 | -2.76645 | 8927 ft | 176 kts | 71° |
| 2026-05-05 19:26 | 50.70802 | -2.74791 | 8924 ft | 176 kts | 71° |
| 2026-05-05 19:26 | 50.71140 | -2.72939 | 8926 ft | 176 kts | 70° |
| 2026-05-05 19:26 | 50.71479 | -2.71089 | 8925 ft | 175 kts | 70° |
| 2026-05-05 19:26 | 50.71813 | -2.69267 | 8927 ft | 175 kts | 71° |
| 2026-05-05 19:27 | 50.72153 | -2.67394 | 8928 ft | 175 kts | 71° |
| 2026-05-05 19:27 | 50.72485 | -2.65579 | 8926 ft | 174 kts | 70° |
| 2026-05-05 19:27 | 50.72820 | -2.63744 | 8927 ft | 174 kts | 70° |
| 2026-05-05 19:27 | 50.73156 | -2.61906 | 8926 ft | 174 kts | 71° |
| 2026-05-05 19:28 | 50.73489 | -2.60071 | 8924 ft | 174 kts | 70° |
| 2026-05-05 19:28 | 50.73822 | -2.58231 | 8926 ft | 174 kts | 70° |
| 2026-05-05 19:28 | 50.74156 | -2.56394 | 8928 ft | 174 kts | 71° |
| 2026-05-05 19:28 | 50.74491 | -2.54548 | 8926 ft | 175 kts | 71° |
| 2026-05-05 19:29 | 50.74824 | -2.52704 | 8924 ft | 175 kts | 71° |
| 2026-05-05 19:29 | 50.75159 | -2.50853 | 8924 ft | 175 kts | 70° |
| 2026-05-05 19:29 | 50.75494 | -2.49000 | 8923 ft | 175 kts | 71° |
| 2026-05-05 19:29 | 50.75828 | -2.47148 | 8925 ft | 175 kts | 71° |
| 2026-05-05 19:30 | 50.76163 | -2.45291 | 8926 ft | 176 kts | 71° |
| 2026-05-05 19:30 | 50.76493 | -2.43461 | 8927 ft | 176 kts | 71° |
| 2026-05-05 19:30 | 50.76827 | -2.41606 | 8923 ft | 175 kts | 70° |
| 2026-05-05 19:30 | 50.77161 | -2.39752 | 8924 ft | 175 kts | 70° |
| 2026-05-05 19:31 | 50.77476 | -2.38000 | 8925 ft | 175 kts | 71° |
| 2026-05-05 19:31 | 50.77808 | -2.36145 | 8925 ft | 175 kts | 71° |
| 2026-05-05 19:31 | 50.78140 | -2.34291 | 8924 ft | 175 kts | 70° |
| 2026-05-05 19:31 | 50.78472 | -2.32438 | 8926 ft | 175 kts | 71° |
| 2026-05-05 19:32 | 50.78803 | -2.30589 | 8925 ft | 175 kts | 72° |
| 2026-05-05 19:32 | 50.79133 | -2.28738 | 8925 ft | 174 kts | 71° |
| 2026-05-05 19:32 | 50.79453 | -2.26943 | 8925 ft | 174 kts | 71° |
| 2026-05-05 19:32 | 50.79781 | -2.25106 | 8926 ft | 174 kts | 71° |
| 2026-05-05 19:33 | 50.80052 | -2.23587 | 8920 ft | 174 kts | 71° |
| 2026-05-05 19:33 | 50.80381 | -2.21740 | 8918 ft | 174 kts | 71° |
| 2026-05-05 19:33 | 50.80709 | -2.19894 | 8918 ft | 174 kts | 71° |
| 2026-05-05 19:33 | 50.81032 | -2.18075 | 8918 ft | 174 kts | 71° |
| 2026-05-05 19:34 | 50.81360 | -2.16229 | 8916 ft | 174 kts | 71° |
| 2026-05-05 19:34 | 50.81678 | -2.14434 | 8916 ft | 175 kts | 71° |
| 2026-05-05 19:34 | 50.82006 | -2.12583 | 8915 ft | 174 kts | 71° |
| 2026-05-05 19:35 | 50.82658 | -2.08897 | 8914 ft | 174 kts | 71° |
| 2026-05-05 19:35 | 50.82982 | -2.07059 | 8915 ft | 174 kts | 72° |
| 2026-05-05 19:35 | 50.83299 | -2.05261 | 8909 ft | 174 kts | 71° |
| 2026-05-05 19:35 | 50.83633 | -2.03365 | 8909 ft | 174 kts | 71° |
| 2026-05-05 19:36 | 50.83958 | -2.01517 | 8913 ft | 174 kts | 71° |
| 2026-05-05 19:36 | 50.84284 | -1.99669 | 8914 ft | 174 kts | 72° |
| 2026-05-05 19:36 | 50.84608 | -1.97820 | 8914 ft | 175 kts | 71° |
| 2026-05-05 19:36 | 50.84928 | -1.95992 | 8913 ft | 174 kts | 71° |
| 2026-05-05 19:37 | 50.85253 | -1.94141 | 8914 ft | 174 kts | 71° |
| 2026-05-05 19:37 | 50.85553 | -1.92429 | 8912 ft | 174 kts | 71° |
| 2026-05-05 19:37 | 50.85869 | -1.90631 | 8913 ft | 174 kts | 72° |
| 2026-05-05 19:37 | 50.86190 | -1.88788 | 8913 ft | 174 kts | 71° |
| 2026-05-05 19:38 | 50.86513 | -1.86941 | 8928 ft | 174 kts | 71° |
| 2026-05-05 19:38 | 50.86835 | -1.85090 | 8928 ft | 174 kts | 71° |
| 2026-05-05 19:38 | 50.87158 | -1.83238 | 8928 ft | 174 kts | 72° |
| 2026-05-05 19:38 | 50.87476 | -1.81404 | 8929 ft | 174 kts | 72° |
| 2026-05-05 19:39 | 50.87798 | -1.79550 | 8928 ft | 174 kts | 71° |
| 2026-05-05 19:39 | 50.88121 | -1.77699 | 8929 ft | 175 kts | 72° |
| 2026-05-05 19:39 | 50.88443 | -1.75841 | 8928 ft | 175 kts | 72° |
| 2026-05-05 19:39 | 50.88761 | -1.74005 | 8927 ft | 175 kts | 72° |
| 2026-05-05 19:40 | 50.89083 | -1.72145 | 8926 ft | 175 kts | 72° |
| 2026-05-05 19:40 | 50.89397 | -1.70329 | 8926 ft | 175 kts | 72° |
| 2026-05-05 19:40 | 50.89718 | -1.68468 | 8924 ft | 175 kts | 72° |
| 2026-05-05 19:40 | 50.89948 | -1.67140 | 8923 ft | 175 kts | 72° |
| 2026-05-05 19:41 | 50.90269 | -1.65278 | 8921 ft | 175 kts | 72° |
| 2026-05-05 19:41 | 50.90589 | -1.63416 | 8903 ft | 175 kts | 72° |
| 2026-05-05 19:41 | 50.90910 | -1.61552 | 8904 ft | 175 kts | 72° |
| 2026-05-05 19:41 | 50.91231 | -1.59689 | 8903 ft | 176 kts | 72° |
| 2026-05-05 19:42 | 50.91546 | -1.57854 | 8900 ft | 176 kts | 72° |
| 2026-05-05 19:42 | 50.91866 | -1.55984 | 8899 ft | 175 kts | 72° |
| 2026-05-05 19:42 | 50.92186 | -1.54120 | 8898 ft | 175 kts | 72° |
| 2026-05-05 19:42 | 50.92505 | -1.52257 | 8899 ft | 175 kts | 72° |
| 2026-05-05 19:43 | 50.92823 | -1.50394 | 8897 ft | 175 kts | 72° |
| 2026-05-05 19:43 | 50.93142 | -1.48530 | 8897 ft | 175 kts | 72° |
| 2026-05-05 19:43 | 50.93441 | -1.46773 | 8897 ft | 175 kts | 72° |
| 2026-05-05 19:43 | 50.93759 | -1.44912 | 8897 ft | 175 kts | 72° |
| 2026-05-05 19:44 | 50.94039 | -1.43263 | 8900 ft | 175 kts | 72° |
| 2026-05-05 19:44 | 50.94356 | -1.41403 | 8901 ft | 175 kts | 72° |
| 2026-05-05 19:44 | 50.94669 | -1.39555 | 8899 ft | 176 kts | 71° |
| 2026-05-05 19:44 | 50.94987 | -1.37687 | 8899 ft | 176 kts | 71° |
| 2026-05-05 19:45 | 50.95304 | -1.35812 | 8899 ft | 176 kts | 72° |
| 2026-05-05 19:45 | 50.95387 | -1.33875 | 8896 ft | 180 kts | 94° |
| 2026-05-05 19:45 | 50.95109 | -1.31973 | 8899 ft | 181 kts | 102° |
| 2026-05-05 19:45 | 50.94782 | -1.30037 | 8900 ft | 182 kts | 102° |
| 2026-05-05 19:46 | 50.94454 | -1.28106 | 8901 ft | 182 kts | 102° |
| 2026-05-05 19:46 | 50.94238 | -1.26826 | 8901 ft | 182 kts | 102° |
| 2026-05-05 19:46 | 50.94014 | -1.25492 | 8901 ft | 182 kts | 102° |
| 2026-05-05 19:46 | 50.93688 | -1.23551 | 8901 ft | 182 kts | 102° |
| 2026-05-05 19:47 | 50.93363 | -1.21616 | 8902 ft | 182 kts | 102° |
| 2026-05-05 19:47 | 50.93071 | -1.19888 | 8901 ft | 182 kts | 102° |
| 2026-05-05 19:47 | 50.92744 | -1.17946 | 8900 ft | 182 kts | 102° |
| 2026-05-05 19:47 | 50.92416 | -1.16008 | 8901 ft | 182 kts | 102° |
| 2026-05-05 19:48 | 50.92152 | -1.14451 | 8901 ft | 182 kts | 102° |
| 2026-05-05 19:48 | 50.91824 | -1.12512 | 8900 ft | 182 kts | 102° |
| 2026-05-05 19:48 | 50.91496 | -1.10577 | 8900 ft | 181 kts | 102° |
| 2026-05-05 19:48 | 50.91174 | -1.08671 | 8900 ft | 181 kts | 102° |
| 2026-05-05 19:49 | 50.90846 | -1.06738 | 8897 ft | 182 kts | 102° |
| 2026-05-05 19:49 | 50.90512 | -1.04772 | 8764 ft | 187 kts | 102° |
| 2026-05-05 19:49 | 50.90169 | -1.02757 | 8632 ft | 190 kts | 102° |
| 2026-05-05 19:49 | 50.89822 | -1.00730 | 8502 ft | 191 kts | 102° |
| 2026-05-05 19:50 | 50.89480 | -0.98721 | 8373 ft | 192 kts | 102° |
| 2026-05-05 19:50 | 50.89168 | -0.96898 | 8256 ft | 192 kts | 102° |
| 2026-05-05 19:50 | 50.88826 | -0.94890 | 8130 ft | 192 kts | 102° |
| 2026-05-05 19:50 | 50.88476 | -0.92850 | 8005 ft | 191 kts | 102° |
| 2026-05-05 19:51 | 50.88129 | -0.90822 | 7902 ft | 190 kts | 102° |
| 2026-05-05 19:51 | 50.87788 | -0.88838 | 7905 ft | 184 kts | 102° |
| 2026-05-05 19:51 | 50.87456 | -0.86899 | 7907 ft | 181 kts | 102° |
| 2026-05-05 19:51 | 50.87132 | -0.85012 | 7907 ft | 179 kts | 101° |
| 2026-05-05 19:52 | 50.86806 | -0.83115 | 7904 ft | 178 kts | 102° |
| 2026-05-05 19:52 | 50.86482 | -0.81232 | 7905 ft | 177 kts | 102° |
| 2026-05-05 19:52 | 50.86157 | -0.79349 | 7904 ft | 177 kts | 102° |
| 2026-05-05 19:52 | 50.85832 | -0.77467 | 7904 ft | 177 kts | 102° |
| 2026-05-05 19:53 | 50.85577 | -0.75740 | 7901 ft | 176 kts | 93° |
| 2026-05-05 19:53 | 50.85585 | -0.74401 | 7903 ft | 174 kts | 82° |
| 2026-05-05 19:53 | 50.85677 | -0.72497 | 7903 ft | 174 kts | 82° |
| 2026-05-05 19:53 | 50.85775 | -0.70613 | 7903 ft | 173 kts | 82° |
| 2026-05-05 19:54 | 50.85871 | -0.68710 | 7903 ft | 174 kts | 82° |
| 2026-05-05 19:54 | 50.85966 | -0.66804 | 7902 ft | 174 kts | 82° |
| 2026-05-05 19:54 | 50.86060 | -0.64902 | 7902 ft | 173 kts | 82° |
| 2026-05-05 19:54 | 50.86155 | -0.62995 | 7902 ft | 174 kts | 82° |
| 2026-05-05 19:55 | 50.86248 | -0.61092 | 7901 ft | 174 kts | 82° |
| 2026-05-05 19:55 | 50.86342 | -0.59181 | 7903 ft | 174 kts | 82° |
| 2026-05-05 19:55 | 50.86436 | -0.57270 | 7901 ft | 174 kts | 82° |
| 2026-05-05 19:55 | 50.86528 | -0.55365 | 7900 ft | 174 kts | 82° |
| 2026-05-05 19:56 | 50.86620 | -0.53480 | 7899 ft | 174 kts | 82° |
| 2026-05-05 19:56 | 50.86708 | -0.51645 | 7899 ft | 174 kts | 82° |
| 2026-05-05 19:56 | 50.86787 | -0.50008 | 7899 ft | 173 kts | 82° |
| 2026-05-05 19:56 | 50.86879 | -0.48106 | 7899 ft | 174 kts | 82° |
| 2026-05-05 19:57 | 50.86971 | -0.46198 | 7901 ft | 174 kts | 82° |
| 2026-05-05 19:57 | 50.87062 | -0.44290 | 7901 ft | 174 kts | 82° |
| 2026-05-05 19:57 | 50.87152 | -0.42386 | 7925 ft | 172 kts | 82° |
| 2026-05-05 19:57 | 50.87241 | -0.40502 | 7937 ft | 172 kts | 82° |
| 2026-05-05 19:58 | 50.87331 | -0.38609 | 7931 ft | 173 kts | 82° |
| 2026-05-05 19:58 | 50.87419 | -0.36729 | 7934 ft | 173 kts | 82° |
| 2026-05-05 19:58 | 50.87450 | -0.34821 | 7934 ft | 174 kts | 89° |
| 2026-05-05 19:58 | 50.87370 | -0.32899 | 7928 ft | 175 kts | 91° |
| 2026-05-05 19:59 | 50.87278 | -0.30976 | 7936 ft | 176 kts | 91° |
| 2026-05-05 19:59 | 50.87185 | -0.29046 | 7934 ft | 176 kts | 91° |
| 2026-05-05 19:59 | 50.87101 | -0.27359 | 7934 ft | 175 kts | 91° |
| 2026-05-05 19:59 | 50.87008 | -0.25432 | 7935 ft | 175 kts | 91° |
| 2026-05-05 20:00 | 50.86915 | -0.23511 | 7932 ft | 175 kts | 91° |
| 2026-05-05 20:00 | 50.86823 | -0.21587 | 7928 ft | 175 kts | 91° |
| 2026-05-05 20:00 | 50.86731 | -0.19687 | 7933 ft | 175 kts | 91° |
| 2026-05-05 20:00 | 50.86638 | -0.17765 | 7933 ft | 175 kts | 91° |
| 2026-05-05 20:01 | 50.86543 | -0.15844 | 7937 ft | 175 kts | 91° |
| 2026-05-05 20:01 | 50.86607 | -0.13946 | 7934 ft | 171 kts | 67° |
| 2026-05-05 20:01 | 50.87246 | -0.12393 | 7946 ft | 168 kts | 47° |
| 2026-05-05 20:01 | 50.88004 | -0.10994 | 7945 ft | 168 kts | 46° |
| 2026-05-05 20:02 | 50.88771 | -0.09602 | 7945 ft | 168 kts | 46° |
| 2026-05-05 20:02 | 50.89542 | -0.08211 | 7946 ft | 168 kts | 46° |
| 2026-05-05 20:02 | 50.90314 | -0.06814 | 7947 ft | 168 kts | 46° |
| 2026-05-05 20:02 | 50.91105 | -0.05450 | 7939 ft | 168 kts | 37° |
| 2026-05-05 20:03 | 50.92044 | -0.04879 | 7937 ft | 165 kts | 2° |
| 2026-05-05 20:03 | 50.93106 | -0.05395 | 7936 ft | 166 kts | 325° |
| 2026-05-05 20:03 | 50.93739 | -0.06919 | 7936 ft | 171 kts | 289° |
| 2026-05-05 20:03 | 50.93962 | -0.08771 | 7968 ft | 171 kts | 282° |
| 2026-05-05 20:04 | 50.94132 | -0.10682 | 7831 ft | 178 kts | 281° |
| 2026-05-05 20:04 | 50.94303 | -0.12645 | 7703 ft | 181 kts | 281° |
| 2026-05-05 20:04 | 50.94475 | -0.14645 | 7575 ft | 183 kts | 281° |
| 2026-05-05 20:04 | 50.94646 | -0.16648 | 7449 ft | 184 kts | 281° |
| 2026-05-05 20:05 | 50.94816 | -0.18659 | 7323 ft | 184 kts | 281° |
| 2026-05-05 20:05 | 50.94984 | -0.20634 | 7200 ft | 184 kts | 281° |
| 2026-05-05 20:05 | 50.95153 | -0.22646 | 7075 ft | 184 kts | 281° |
| 2026-05-05 20:05 | 50.95322 | -0.24660 | 6947 ft | 184 kts | 281° |
| 2026-05-05 20:06 | 50.95489 | -0.26671 | 6826 ft | 184 kts | 281° |
| 2026-05-05 20:06 | 50.95817 | -0.28605 | 6656 ft | 182 kts | 303° |
| 2026-05-05 20:06 | 50.96747 | -0.29912 | 6416 ft | 181 kts | 334° |
| 2026-05-05 20:06 | 50.97919 | -0.30668 | 6162 ft | 182 kts | 342° |
| 2026-05-05 20:07 | 50.99118 | -0.31323 | 5902 ft | 182 kts | 343° |
| 2026-05-05 20:07 | 51.00319 | -0.31971 | 5642 ft | 182 kts | 343° |
| 2026-05-05 20:07 | 51.01481 | -0.32598 | 5384 ft | 176 kts | 343° |
| 2026-05-05 20:07 | 51.02633 | -0.33222 | 5126 ft | 173 kts | 343° |
| 2026-05-05 20:08 | 51.03751 | -0.33836 | 4873 ft | 166 kts | 343° |
| 2026-05-05 20:08 | 51.04819 | -0.34428 | 4618 ft | 158 kts | 343° |
| 2026-05-05 20:08 | 51.05843 | -0.34959 | 4356 ft | 152 kts | 345° |
| 2026-05-05 20:08 | 51.06844 | -0.35436 | 4098 ft | 148 kts | 346° |
| 2026-05-05 20:09 | 51.07830 | -0.35891 | 3845 ft | 147 kts | 346° |
| 2026-05-05 20:09 | 51.08810 | -0.36342 | 3586 ft | 146 kts | 346° |
| 2026-05-05 20:09 | 51.09785 | -0.36787 | 3331 ft | 145 kts | 346° |
| 2026-05-05 20:09 | 51.10769 | -0.36792 | 3065 ft | 144 kts | 22° |
| 2026-05-05 20:10 | 51.11543 | -0.35806 | 2814 ft | 143 kts | 44° |
| 2026-05-05 20:10 | 51.12235 | -0.34696 | 2557 ft | 135 kts | 45° |
| 2026-05-05 20:10 | 51.12717 | -0.33542 | 2310 ft | 113 kts | 71° |
| 2026-05-05 20:10 | 51.12899 | -0.32532 | 2076 ft | 103 kts | 74° |
| 2026-05-05 20:11 | 51.13082 | -0.31442 | 1811 ft | 103 kts | 74° |
| 2026-05-05 20:11 | 51.13274 | -0.30340 | 1548 ft | 103 kts | 76° |
| 2026-05-05 20:11 | 51.13423 | -0.29220 | 1383 ft | 104 kts | 78° |
| 2026-05-05 20:11 | 51.13587 | -0.28103 | 1212 ft | 104 kts | 78° |
| 2026-05-05 20:12 | 51.13716 | -0.27007 | 1065 ft | 107 kts | 78° |
| 2026-05-05 20:12 | 51.13878 | -0.25903 | 928 ft | 92 kts | 77° |
| 2026-05-05 20:12 | 51.14002 | -0.24946 | 791 ft | 85 kts | 78° |
| 2026-05-05 20:12 | 51.14127 | -0.24027 | 676 ft | 85 kts | 76° |
| 2026-05-05 20:13 | 51.14259 | -0.23100 | 567 ft | 85 kts | 76° |
| 2026-05-05 20:13 | 51.14379 | -0.22190 | 437 ft | 84 kts | 77° |
| 2026-05-05 20:13 | 51.14504 | -0.21282 | 332 ft | 83 kts | 78° |
| 2026-05-05 20:13 | 51.14623 | -0.20399 | 232 ft | 82 kts | 77° |
| 2026-05-05 20:14 | 51.14733 | -0.19628 | 202 ft | 56 kts | 76° |
| 2026-05-05 20:14 | 51.14796 | -0.19169 | 199 ft | 38 kts | 78° |
| 2026-05-05 20:14 | 51.14850 | -0.18779 | 197 ft | 30 kts | 77° |
| 2026-05-05 20:14 | 51.14924 | -0.18537 | 196 ft | 21 kts | 52° |
| 2026-05-05 20:15 | 51.15002 | -0.18391 | 204 ft | 15 kts | 51° |
| 2026-05-05 20:15 | 51.15070 | -0.18255 | 197 ft | 14 kts | 49° |
| 2026-05-05 20:15 | 51.15158 | -0.18203 | 201 ft | 15 kts | 358° |
| 2026-05-05 20:15 | 51.15308 | -0.18246 | 198 ft | 28 kts | 349° |
| 2026-05-05 20:16 | 51.15459 | -0.18301 | 201 ft | 9 kts | 348° |
| 2026-05-05 20:16 | 51.15462 | -0.18392 | 198 ft | 10 kts | 257° |
| 2026-05-05 20:16 | 51.15454 | -0.18454 | 200 ft | 0 kts | 257° |